Time;durP1;ratioP1;P1;durP2;ratioP2;P2;SDS_P1;SDS_P2;PMS_P1;PMS_P2;Temp;Humidity;BMP_temperature;BMP_pressure;BME280_temperature;BME280_humidity;BME280_pressure;Samples;Min_cycle;Max_cycle;Signal;HPM_P1;HPM_P2
2022/06/05 00:01:11;;;;;;;8.95;4.45;;;11.80;99.90;;;;;;5003632;28;20042;-72
2022/06/05 00:03:54;;;;;;;8.20;5.25;;;11.80;99.90;;;;;;5001900;28;20131;-73
2022/06/05 00:06:27;;;;;;;9.43;4.10;;;11.90;99.90;;;;;;5010420;28;20761;-73
2022/06/05 00:09:01;;;;;;;13.75;5.00;;;11.90;99.90;;;;;;5014356;28;20036;-73
2022/06/05 00:11:34;;;;;;;10.68;6.05;;;11.90;99.90;;;;;;5023860;28;20054;-72
2022/06/05 00:13:59;;;;;;;9.93;5.40;;;11.90;99.90;;;;;;5025010;28;20130;-73
2022/06/05 00:16:28;;;;;;;9.77;4.97;;;11.90;99.90;;;;;;5025583;28;20905;-72
2022/06/05 00:18:54;;;;;;;10.75;5.22;;;11.90;99.90;;;;;;5024471;28;20037;-72
2022/06/05 00:21:20;;;;;;;12.07;5.10;;;11.90;99.90;;;;;;5021678;28;20060;-72
2022/06/05 00:23:46;;;;;;;8.43;5.10;;;11.90;99.90;;;;;;5021939;28;20124;-71
2022/06/05 00:26:18;;;;;;;;;;;11.90;99.90;;;;;;5020234;28;20118;-72
2022/06/05 00:28:53;;;;;;;8.43;5.00;;;11.90;99.90;;;;;;5003562;28;19943;-72
2022/06/05 00:31:49;;;;;;;8.25;5.20;;;11.90;99.90;;;;;;5016829;28;20160;-72
2022/06/05 00:34:15;;;;;;;8.95;4.75;;;11.90;99.90;;;;;;5016878;28;20042;-72
2022/06/05 00:36:49;;;;;;;10.87;5.63;;;11.90;99.90;;;;;;5019698;28;20284;-72
2022/06/05 00:39:26;;;;;;;8.25;5.00;;;11.90;99.90;;;;;;5010539;28;20093;-72
2022/06/05 00:41:54;;;;;;;10.73;5.57;;;11.90;99.90;;;;;;5010761;28;20046;-72
2022/06/05 00:44:41;;;;;;;12.63;5.55;;;11.90;99.90;;;;;;5026401;28;20045;-72
2022/06/05 00:47:09;;;;;;;9.95;4.95;;;11.90;99.90;;;;;;5002618;28;20115;-72
2022/06/05 00:49:48;;;;;;;12.13;5.50;;;11.90;99.90;;;;;;5028873;28;20144;-72
2022/06/05 00:52:18;;;;;;;8.88;5.35;;;11.90;99.90;;;;;;5004831;28;20409;-72
2022/06/05 00:54:43;;;;;;;11.80;5.75;;;11.90;99.90;;;;;;5008565;28;20081;-72
2022/06/05 00:57:12;;;;;;;10.60;5.20;;;11.90;99.90;;;;;;5021683;28;20513;-72
2022/06/05 00:59:40;;;;;;;12.65;5.55;;;11.90;99.90;;;;;;5008553;28;20087;-72
2022/06/05 01:02:07;;;;;;;9.52;5.68;;;11.90;99.90;;;;;;5020416;28;20410;-72
2022/06/05 01:04:34;;;;;;;14.80;5.82;;;11.90;99.90;;;;;;5004031;28;20049;-72
2022/06/05 01:07:00;;;;;;;9.77;4.95;;;11.90;99.90;;;;;;5006565;28;20084;-72
2022/06/05 01:09:25;;;;;;;11.00;5.65;;;11.90;99.90;;;;;;5021722;28;20041;-72
2022/06/05 01:12:20;;;;;;;12.70;6.03;;;11.90;99.90;;;;;;5005187;28;20046;-72
2022/06/05 01:15:26;;;;;;;9.45;5.07;;;11.90;99.90;;;;;;4994500;28;20158;-72
2022/06/05 01:18:10;;;;;;;10.25;5.80;;;11.90;99.90;;;;;;5006255;28;20107;-72
2022/06/05 01:21:03;;;;;;;11.15;4.85;;;11.90;99.90;;;;;;5019410;28;20568;-72
2022/06/05 01:23:42;;;;;;;9.95;4.95;;;11.90;99.90;;;;;;5008233;28;20041;-72
2022/06/05 01:26:42;;;;;;;11.07;5.03;;;11.90;99.90;;;;;;5012132;28;20040;-72
2022/06/05 01:29:17;;;;;;;10.18;4.90;;;11.90;99.90;;;;;;4995033;28;20097;-72
2022/06/05 01:32:00;;;;;;;10.40;4.95;;;11.90;99.90;;;;;;5022156;28;20042;-72
2022/06/05 01:34:34;;;;;;;11.23;5.32;;;11.90;99.90;;;;;;4992983;28;20253;-72
2022/06/05 01:37:16;;;;;;;9.95;4.95;;;11.90;99.90;;;;;;5020647;28;20073;-72
2022/06/05 01:39:51;;;;;;;10.02;5.60;;;12.00;99.90;;;;;;5008391;28;20049;-72
2022/06/05 01:42:28;;;;;;;10.07;5.45;;;11.90;99.90;;;;;;5018829;28;20591;-72
2022/06/05 01:45:01;;;;;;;9.88;5.20;;;11.90;99.90;;;;;;5012778;28;20037;-72
2022/06/05 01:47:32;;;;;;;12.07;5.22;;;12.00;99.90;;;;;;4985214;28;20049;-72
2022/06/05 01:50:15;;;;;;;8.07;4.68;;;12.00;99.90;;;;;;4993950;28;20124;-72
2022/06/05 01:52:52;;;;;;;8.45;4.80;;;12.00;99.90;;;;;;4990012;28;20501;-73
2022/06/05 01:55:33;;;;;;;8.27;4.07;;;12.00;99.90;;;;;;5012790;28;20399;-73
2022/06/05 01:58:04;;;;;;;8.77;4.90;;;12.00;99.90;;;;;;5030293;28;20559;-72
2022/06/05 02:00:30;;;;;;;10.20;4.80;;;12.00;99.90;;;;;;4997876;28;20091;-72
2022/06/05 02:03:02;;;;;;;7.63;4.75;;;12.00;99.90;;;;;;4999733;28;20405;-72
2022/06/05 02:05:34;;;;;;;9.50;4.55;;;12.00;99.90;;;;;;5024891;28;20417;-72
2022/06/05 02:08:06;;;;;;;7.82;4.32;;;12.00;99.90;;;;;;5002901;28;20112;-72
2022/06/05 02:10:50;;;;;;;10.82;5.15;;;12.00;99.90;;;;;;5017880;28;20622;-72
2022/06/05 02:13:17;;;;;;;10.90;4.43;;;12.00;99.90;;;;;;5021834;28;20099;-72
2022/06/05 02:15:43;;;;;;;10.23;4.65;;;12.00;99.90;;;;;;5027362;28;20077;-72
2022/06/05 02:18:08;;;;;;;8.57;4.88;;;12.00;99.90;;;;;;5008249;28;20144;-73
2022/06/05 02:20:35;;;;;;;11.77;4.37;;;12.00;99.90;;;;;;5004196;28;20148;-72
2022/06/05 02:23:05;;;;;;;9.10;4.45;;;11.90;99.90;;;;;;4993921;28;20512;-73
2022/06/05 02:25:33;;;;;;;6.75;3.97;;;12.00;99.90;;;;;;4990993;28;20121;-73
2022/06/05 02:28:00;;;;;;;8.75;4.75;;;11.90;99.90;;;;;;4986520;28;20042;-72
2022/06/05 02:30:36;;;;;;;9.65;4.47;;;12.00;99.90;;;;;;5019006;28;20185;-73
2022/06/05 02:33:26;;;;;;;6.95;4.20;;;12.00;99.90;;;;;;4996550;28;20132;-74
2022/06/05 02:35:59;;;;;;;9.95;4.15;;;12.00;99.90;;;;;;4992410;28;20451;-73
2022/06/05 02:38:57;;;;;;;8.15;4.43;;;12.00;99.90;;;;;;5015848;28;20038;-72
2022/06/05 02:41:48;;;;;;;12.23;5.05;;;12.00;99.90;;;;;;4999619;28;20371;-72
2022/06/05 02:44:29;;;;;;;6.95;3.97;;;12.00;99.90;;;;;;4989909;28;20288;-72
2022/06/05 02:47:16;;;;;;;9.00;4.50;;;12.00;99.90;;;;;;5011530;28;20046;-73
2022/06/05 02:49:55;;;;;;;6.50;4.22;;;12.00;99.90;;;;;;5013110;28;20037;-72
2022/06/05 02:52:22;;;;;;;8.25;3.92;;;12.00;99.90;;;;;;4992293;28;20042;-73
2022/06/05 02:54:56;;;;;;;8.77;4.55;;;12.00;99.90;;;;;;5015660;28;20069;-72
2022/06/05 02:57:22;;;;;;;9.75;4.30;;;12.00;99.90;;;;;;5019932;28;20034;-72
2022/06/05 02:59:48;;;;;;;8.23;4.53;;;12.00;99.90;;;;;;5031563;28;20044;-73
2022/06/05 03:04:57;;;;;;;9.43;4.97;;;12.00;99.90;;;;;;5013814;28;20049;-73
2022/06/05 03:07:23;;;;;;;9.13;4.95;;;12.00;99.90;;;;;;5020718;28;20525;-73
2022/06/05 03:09:49;;;;;;;11.57;5.23;;;12.00;99.90;;;;;;5024613;28;20062;-72
2022/06/05 03:12:14;;;;;;;7.87;4.63;;;12.00;99.90;;;;;;5024595;28;20060;-74
2022/06/05 03:14:40;;;;;;;7.50;4.23;;;12.00;99.90;;;;;;5021801;28;20110;-73
2022/06/05 03:17:05;;;;;;;16.33;5.50;;;12.00;99.90;;;;;;5026873;28;20038;-72
2022/06/05 03:19:31;;;;;;;8.03;4.17;;;12.00;99.90;;;;;;5027803;28;20145;-72
2022/06/05 03:21:57;;;;;;;11.47;5.00;;;12.00;99.90;;;;;;5004138;28;20304;-72
2022/06/05 03:24:22;;;;;;;9.47;5.40;;;12.10;99.90;;;;;;5027202;28;20802;-73
2022/06/05 03:26:48;;;;;;;10.07;4.77;;;12.10;99.90;;;;;;5011604;28;20052;-72
2022/06/05 03:29:14;;;;;;;8.53;4.63;;;12.10;99.90;;;;;;5026054;28;20375;-73
2022/06/05 03:31:39;;;;;;;13.18;5.03;;;12.10;99.90;;;;;;5027771;28;20421;-72
2022/06/05 03:34:05;;;;;;;10.73;5.03;;;12.10;99.90;;;;;;5024681;28;20227;-72
2022/06/05 03:36:31;;;;;;;8.63;5.07;;;12.10;99.90;;;;;;5022772;28;20133;-74
2022/06/05 03:41:27;;;;;;;13.10;6.07;;;12.20;99.90;;;;;;5058108;28;20063;-72
2022/06/05 03:43:53;;;;;;;9.47;5.13;;;12.20;99.90;;;;;;5065779;28;20040;-72
2022/06/05 03:46:19;;;;;;;11.07;5.70;;;12.20;99.90;;;;;;5045513;28;20286;-73
2022/06/05 03:48:45;;;;;;;10.67;5.37;;;12.10;99.90;;;;;;5054284;28;20059;-72
2022/06/05 03:51:16;;;;;;;8.98;5.38;;;12.20;99.90;;;;;;5038666;28;20303;-73
2022/06/05 03:53:43;;;;;;;9.65;4.88;;;12.20;99.90;;;;;;5026990;28;20046;-72
2022/06/05 03:56:10;;;;;;;8.15;5.30;;;12.20;99.90;;;;;;5040904;28;20049;-73
2022/06/05 03:58:37;;;;;;;11.82;5.63;;;12.20;99.90;;;;;;5019026;28;20056;-72
2022/06/05 04:01:03;;;;;;;11.88;5.60;;;12.20;99.90;;;;;;5016294;28;20049;-72
2022/06/05 04:03:29;;;;;;;9.70;5.68;;;12.20;99.90;;;;;;5024908;28;20068;-72
2022/06/05 04:05:55;;;;;;;13.40;5.78;;;12.20;99.90;;;;;;5037666;28;20128;-72
2022/06/05 04:08:20;;;;;;;11.77;5.03;;;12.30;99.90;;;;;;5040964;28;20112;-72
2022/06/05 04:10:46;;;;;;;8.43;5.20;;;12.30;99.90;;;;;;5044419;28;20299;-72
2022/06/05 04:13:11;;;;;;;9.80;5.17;;;12.30;99.90;;;;;;5029528;28;20666;-72
2022/06/05 04:15:41;;;;;;;11.67;5.50;;;12.30;99.90;;;;;;5050435;28;20033;-72
2022/06/05 04:18:08;;;;;;;12.45;5.82;;;12.30;99.90;;;;;;5050211;28;20611;-72
2022/06/05 04:20:37;;;;;;;10.48;5.72;;;12.40;99.90;;;;;;5045819;28;20115;-72
2022/06/05 04:23:02;;;;;;;10.88;5.82;;;12.40;99.90;;;;;;5038311;28;20049;-72
2022/06/05 04:25:28;;;;;;;11.03;5.23;;;12.50;99.90;;;;;;5035586;28;20045;-72
2022/06/05 04:27:56;;;;;;;11.87;5.90;;;12.50;99.90;;;;;;5012968;28;20323;-72
2022/06/05 04:30:22;;;;;;;12.88;5.28;;;12.50;99.90;;;;;;5029328;28;20052;-72
2022/06/05 04:32:48;;;;;;;;;;;12.50;99.90;;;;;;5042919;28;20041;-72
2022/06/05 04:35:14;;;;;;;7.70;4.50;;;12.60;99.90;;;;;;5048667;28;20075;-72
2022/06/05 04:37:39;;;;;;;14.03;5.33;;;12.60;99.90;;;;;;5038005;28;20052;-72
2022/06/05 04:40:06;;;;;;;12.93;6.20;;;12.70;99.90;;;;;;5019930;28;20825;-72
2022/06/05 04:42:32;;;;;;;13.20;6.63;;;12.70;99.90;;;;;;5022618;28;20386;-73
2022/06/05 04:44:58;;;;;;;11.77;6.35;;;12.70;99.90;;;;;;5046008;28;20044;-72
2022/06/05 04:47:24;;;;;;;9.85;5.40;;;12.70;99.90;;;;;;5016044;28;20083;-73
2022/06/05 04:49:49;;;;;;;11.55;5.55;;;12.80;99.90;;;;;;5024864;28;20123;-73
2022/06/05 04:52:15;;;;;;;11.20;5.70;;;12.80;99.90;;;;;;5037336;28;20196;-73
2022/06/05 04:54:41;;;;;;;14.07;4.93;;;12.80;99.90;;;;;;5031083;28;20029;-73
2022/06/05 04:57:07;;;;;;;13.45;6.10;;;12.90;99.90;;;;;;5012799;28;20705;-72
2022/06/05 04:59:33;;;;;;;9.98;6.18;;;12.90;99.90;;;;;;5037571;28;20041;-72
2022/06/05 05:01:58;;;;;;;11.32;5.72;;;13.00;99.90;;;;;;5034802;28;20459;-72
2022/06/05 05:04:24;;;;;;;13.73;6.03;;;13.00;99.90;;;;;;5031224;28;20041;-73
2022/06/05 05:06:50;;;;;;;11.40;5.63;;;13.00;99.90;;;;;;5045605;28;20045;-73
2022/06/05 05:09:16;;;;;;;10.50;6.23;;;13.00;99.90;;;;;;5053382;28;20787;-72
2022/06/05 05:11:42;;;;;;;10.68;5.28;;;13.10;99.90;;;;;;5053412;28;20033;-72
2022/06/05 05:14:09;;;;;;;11.82;5.50;;;13.10;99.90;;;;;;5021097;28;20086;-73
2022/06/05 05:16:35;;;;;;;;;;;13.20;99.90;;;;;;5039833;28;20078;-72
2022/06/05 05:19:00;;;;;;;14.68;5.18;;;13.30;99.90;;;;;;5046080;28;20347;-73
2022/06/05 05:21:26;;;;;;;8.93;5.67;;;13.30;99.90;;;;;;5038882;28;20071;-73
2022/06/05 05:23:53;;;;;;;13.07;5.80;;;13.40;99.90;;;;;;5024175;28;20181;-72
2022/06/05 05:26:27;;;;;;;;;;;13.50;99.90;;;;;;5047839;28;20163;-72
2022/06/05 05:28:53;;;;;;;13.98;5.60;;;13.50;99.90;;;;;;5030226;28;19921;-73
2022/06/05 05:31:28;;;;;;;9.73;5.93;;;13.50;99.90;;;;;;5039239;28;20038;-72
2022/06/05 05:33:54;;;;;;;11.02;5.53;;;13.60;99.90;;;;;;5039964;28;20405;-73
2022/06/05 05:36:22;;;;;;;10.63;5.78;;;13.70;99.90;;;;;;5045441;28;20325;-73
2022/06/05 05:44:19;;;;;;;13.25;5.88;;;13.80;99.90;;;;;;5042623;28;20049;-73
2022/06/05 05:46:45;;;;;;;9.10;5.82;;;13.90;99.90;;;;;;5037140;28;20024;-73
2022/06/05 05:49:12;;;;;;;9.45;5.38;;;13.90;99.90;;;;;;5022358;28;20041;-72
2022/06/05 05:51:38;;;;;;;8.75;5.40;;;13.90;99.90;;;;;;5043892;28;20033;-73
2022/06/05 05:54:04;;;;;;;10.70;5.88;;;13.90;99.90;;;;;;5015101;28;20266;-73
2022/06/05 05:56:30;;;;;;;10.85;5.68;;;14.00;99.90;;;;;;5010428;28;20482;-73
2022/06/05 05:58:56;;;;;;;12.15;6.13;;;14.00;99.90;;;;;;5031426;28;20037;-73
2022/06/05 06:01:22;;;;;;;10.75;6.07;;;14.10;99.90;;;;;;5035314;28;20041;-73
2022/06/05 06:03:48;;;;;;;12.60;6.30;;;14.10;99.90;;;;;;5043433;28;20105;-72
2022/06/05 06:06:14;;;;;;;11.67;5.10;;;14.20;99.90;;;;;;5004442;28;20040;-72
2022/06/05 06:08:40;;;;;;;12.18;6.07;;;14.30;99.90;;;;;;5035114;28;20056;-72
2022/06/05 06:11:07;;;;;;;14.80;5.97;;;14.30;99.90;;;;;;5022950;28;20132;-73
2022/06/05 06:13:33;;;;;;;10.05;6.07;;;14.30;99.90;;;;;;5026302;28;20056;-73
2022/06/05 06:15:58;;;;;;;12.18;6.20;;;14.40;99.90;;;;;;5014167;28;20048;-73
2022/06/05 06:18:24;;;;;;;10.98;5.82;;;14.50;99.90;;;;;;5025685;28;20276;-73
2022/06/05 06:20:50;;;;;;;11.27;5.90;;;14.50;99.90;;;;;;5042514;28;20086;-73
2022/06/05 06:23:16;;;;;;;9.82;5.53;;;14.50;99.90;;;;;;5041027;28;20525;-71
2022/06/05 06:25:42;;;;;;;11.20;6.35;;;14.60;99.90;;;;;;5021813;28;20048;-71
2022/06/05 06:28:08;;;;;;;;;;;14.60;99.90;;;;;;5023290;28;20091;-71
2022/06/05 06:30:35;;;;;;;10.98;5.97;;;14.70;99.90;;;;;;5025625;28;19921;-71
2022/06/05 06:33:00;;;;;;;;;;;14.70;99.90;;;;;;5048381;28;20124;-71
2022/06/05 06:35:26;;;;;;;8.98;5.22;;;14.80;99.90;;;;;;5030024;28;20012;-71
2022/06/05 06:37:52;;;;;;;12.65;5.38;;;14.80;99.90;;;;;;5040881;28;20629;-71
2022/06/05 06:40:18;;;;;;;11.23;5.90;;;14.90;99.90;;;;;;5043726;28;20049;-71
2022/06/05 06:42:43;;;;;;;10.55;5.35;;;14.90;99.90;;;;;;5028739;28;20052;-71
2022/06/05 06:45:10;;;;;;;9.37;6.03;;;15.00;99.90;;;;;;5029318;28;20020;-71
2022/06/05 06:47:35;;;;;;;9.80;5.65;;;15.10;99.90;;;;;;5040394;28;20319;-71
2022/06/05 06:50:01;;;;;;;9.55;5.47;;;15.10;99.90;;;;;;5036947;28;20033;-71
2022/06/05 06:52:27;;;;;;;11.93;6.15;;;15.20;99.90;;;;;;5034743;28;20287;-71
2022/06/05 06:54:56;;;;;;;10.77;6.10;;;15.20;99.90;;;;;;5013814;28;20412;-71
2022/06/05 06:57:21;;;;;;;8.00;4.68;;;15.30;99.90;;;;;;5032227;28;20946;-71
2022/06/05 06:59:47;;;;;;;9.38;5.97;;;15.40;99.90;;;;;;5044058;28;20120;-71
2022/06/05 07:02:13;;;;;;;11.33;5.57;;;15.50;99.90;;;;;;5040844;28;20052;-71
2022/06/05 07:04:39;;;;;;;9.75;5.53;;;15.50;99.90;;;;;;5026160;28;20303;-71
2022/06/05 07:07:04;;;;;;;9.27;5.18;;;15.50;99.90;;;;;;5041134;28;20064;-71
2022/06/05 07:09:32;;;;;;;9.75;5.25;;;15.60;99.90;;;;;;5034518;28;20068;-71
2022/06/05 07:11:57;;;;;;;8.40;5.25;;;15.70;99.90;;;;;;5044909;28;20465;-71
2022/06/05 07:14:25;;;;;;;8.05;4.82;;;15.70;99.90;;;;;;5051073;28;20155;-72
2022/06/05 07:16:51;;;;;;;10.55;5.07;;;15.80;99.90;;;;;;5046423;28;20090;-71
2022/06/05 07:19:17;;;;;;;11.55;5.25;;;15.90;99.90;;;;;;5048225;28;20033;-71
2022/06/05 07:21:43;;;;;;;;;;;15.90;99.90;;;;;;5008473;28;20055;-71
2022/06/05 07:24:09;;;;;;;10.00;5.40;;;16.00;99.90;;;;;;5026292;28;20355;-71
2022/06/05 07:26:35;;;;;;;7.20;5.10;;;16.00;99.90;;;;;;5032945;28;20036;-71
2022/06/05 07:29:00;;;;;;;9.65;5.80;;;16.10;99.90;;;;;;5053294;28;20489;-71
2022/06/05 07:31:29;;;;;;;8.63;5.57;;;16.20;99.90;;;;;;5023302;28;20393;-71
2022/06/05 07:33:55;;;;;;;8.65;5.22;;;16.20;99.90;;;;;;5039200;28;20132;-71
2022/06/05 07:36:21;;;;;;;;;;;16.30;99.90;;;;;;5025239;28;20297;-71
2022/06/05 07:38:47;;;;;;;9.07;5.05;;;16.30;99.90;;;;;;5046837;28;20376;-71
2022/06/05 07:41:34;;;;;;;8.77;5.18;;;16.40;99.90;;;;;;5028512;28;20052;-71
2022/06/05 07:44:03;;;;;;;9.02;5.05;;;16.50;99.90;;;;;;5028507;28;20096;-71
2022/06/05 07:46:30;;;;;;;9.07;5.03;;;16.70;99.90;;;;;;5041920;28;20033;-71
2022/06/05 07:48:56;;;;;;;8.07;4.80;;;16.80;99.90;;;;;;5044239;28;20497;-71
2022/06/05 07:54:31;;;;;;;8.32;5.05;;;17.00;99.90;;;;;;5045688;28;20064;-71
2022/06/05 07:57:15;;;;;;;10.18;4.53;;;17.00;99.90;;;;;;5026168;28;20121;-71
2022/06/05 07:59:46;;;;;;;7.88;5.18;;;17.10;99.90;;;;;;5026345;28;20124;-71
2022/06/05 08:02:24;;;;;;;10.35;5.00;;;17.20;99.90;;;;;;5043185;28;20048;-71
2022/06/05 08:04:51;;;;;;;9.18;5.35;;;17.30;99.90;;;;;;5046879;28;20049;-71
2022/06/05 08:07:19;;;;;;;8.07;5.03;;;17.40;99.90;;;;;;5026982;28;20029;-71
2022/06/05 08:09:46;;;;;;;7.97;5.07;;;17.50;99.90;;;;;;5042220;28;20045;-71
2022/06/05 08:12:16;;;;;;;8.68;4.90;;;17.50;99.90;;;;;;5045376;28;20045;-71
2022/06/05 08:14:43;;;;;;;9.77;5.00;;;17.60;99.90;;;;;;5045220;28;20037;-72
2022/06/05 08:17:12;;;;;;;10.57;4.93;;;17.70;99.90;;;;;;5009149;28;20401;-71
2022/06/05 08:19:40;;;;;;;9.05;5.07;;;17.80;99.90;;;;;;5032217;28;20037;-71
2022/06/05 08:22:07;;;;;;;7.13;4.70;;;17.90;99.90;;;;;;5005715;28;20059;-71
2022/06/05 08:24:32;;;;;;;8.02;4.97;;;17.90;99.90;;;;;;5022271;28;20116;-71
2022/06/05 08:26:58;;;;;;;8.98;5.20;;;18.00;99.90;;;;;;5041179;28;20554;-71
2022/06/05 08:29:25;;;;;;;8.77;4.80;;;18.10;99.90;;;;;;5037336;28;20049;-71
2022/06/05 08:31:51;;;;;;;8.75;5.05;;;18.20;99.90;;;;;;5027676;28;20128;-71
2022/06/05 08:34:17;;;;;;;10.52;5.07;;;18.30;99.90;;;;;;5038014;28;20128;-71
2022/06/05 08:36:43;;;;;;;8.55;5.43;;;18.40;99.90;;;;;;5045776;28;20051;-71
2022/06/05 08:42:25;;;;;;;6.35;4.40;;;18.60;99.90;;;;;;5024998;28;20048;-71
2022/06/05 08:45:31;;;;;;;7.40;4.45;;;18.60;99.90;;;;;;5033932;28;20378;-71
2022/06/05 08:48:03;;;;;;;7.55;4.47;;;18.70;99.90;;;;;;5003785;28;20045;-71
2022/06/05 08:50:46;;;;;;;7.07;4.32;;;18.80;99.90;;;;;;5021183;28;20056;-71
2022/06/05 08:53:17;;;;;;;7.28;4.80;;;18.90;99.90;;;;;;5040210;28;20437;-71
2022/06/05 08:55:46;;;;;;;6.57;4.50;;;18.90;99.90;;;;;;5026392;28;20041;-71
2022/06/05 08:58:40;;;;;;;9.27;4.07;;;19.00;99.90;;;;;;5044825;28;20037;-72
2022/06/05 09:01:19;;;;;;;7.82;4.65;;;19.10;99.90;;;;;;5020905;28;20429;-71
2022/06/05 09:03:52;;;;;;;6.63;4.38;;;19.10;99.90;;;;;;5026612;28;20039;-72
2022/06/05 09:06:29;;;;;;;8.60;4.55;;;19.20;99.90;;;;;;5038959;28;20040;-71
2022/06/05 09:08:56;;;;;;;7.35;4.65;;;19.20;99.90;;;;;;5040494;28;20071;-72
2022/06/05 09:11:35;;;;;;;8.20;4.93;;;19.30;99.90;;;;;;5024695;28;20428;-71
2022/06/05 09:14:20;;;;;;;6.78;4.78;;;19.30;99.90;;;;;;5026524;28;20692;-72
2022/06/05 09:16:52;;;;;;;7.65;4.70;;;19.40;99.90;;;;;;5024592;28;20378;-71
2022/06/05 09:19:26;;;;;;;7.75;4.50;;;19.50;99.90;;;;;;5043927;28;20071;-71
2022/06/05 09:22:03;;;;;;;6.75;4.07;;;19.40;99.90;;;;;;5043018;28;20033;-71
2022/06/05 09:24:37;;;;;;;11.23;4.50;;;19.60;99.90;;;;;;5016588;28;20064;-72
2022/06/05 09:27:22;;;;;;;7.63;4.40;;;19.70;99.90;;;;;;5044723;28;20040;-71
2022/06/05 09:30:08;;;;;;;6.93;4.20;;;19.80;99.90;;;;;;5041936;28;20045;-71
2022/06/05 09:32:39;;;;;;;6.60;4.57;;;19.90;99.90;;;;;;5044867;28;20048;-72
2022/06/05 09:35:11;;;;;;;9.63;4.55;;;20.00;99.90;;;;;;5037616;28;20521;-72
2022/06/05 09:37:44;;;;;;;9.02;3.88;;;20.20;99.90;;;;;;5027117;28;20049;-71
2022/06/05 09:40:28;;;;;;;6.97;4.68;;;20.30;99.90;;;;;;5113114;22;20476;-72
2022/06/05 09:43:00;;;;;;;5.93;3.80;;;20.40;99.90;;;;;;5041697;28;20495;-72
2022/06/05 09:45:44;;;;;;;6.25;4.72;;;20.50;99.90;;;;;;5042640;28;20473;-72
2022/06/05 09:48:36;;;;;;;7.30;4.18;;;20.50;99.90;;;;;;5036137;28;20036;-72
2022/06/05 09:51:06;;;;;;;7.07;3.92;;;20.60;99.90;;;;;;5036223;28;20053;-72
2022/06/05 09:53:42;;;;;;;7.13;4.28;;;20.70;99.90;;;;;;5021147;28;20051;-71
2022/06/05 09:56:22;;;;;;;6.30;3.85;;;20.70;99.90;;;;;;5010493;28;20036;-72
2022/06/05 09:58:54;;;;;;;5.40;3.70;;;20.70;99.90;;;;;;5043146;28;20138;-71
2022/06/05 10:01:31;;;;;;;6.85;4.30;;;20.80;99.90;;;;;;5021370;28;20103;-72
2022/06/05 10:03:57;;;;;;;;;;;20.90;99.90;;;;;;5030109;28;20413;-71
2022/06/05 10:06:43;;;;;;;5.53;3.40;;;20.90;99.90;;;;;;5038997;28;20320;-72
2022/06/05 10:09:15;;;;;;;6.43;4.13;;;21.00;99.90;;;;;;5022750;28;20068;-72
2022/06/05 10:11:55;;;;;;;6.00;4.10;;;21.00;99.90;;;;;;5038454;28;20952;-71
2022/06/05 10:14:45;;;;;;;6.35;4.20;;;21.00;99.90;;;;;;5014823;28;20033;-72
2022/06/05 10:17:35;;;;;;;5.75;4.05;;;21.00;99.90;;;;;;5022278;28;20551;-71
2022/06/05 10:20:12;;;;;;;5.80;3.92;;;21.00;99.90;;;;;;5031651;28;20136;-71
2022/06/05 10:22:53;;;;;;;5.22;3.45;;;20.90;99.90;;;;;;5016752;28;20125;-72
2022/06/05 10:25:51;;;;;;;6.32;4.18;;;21.00;99.90;;;;;;5038502;28;20076;-72
2022/06/05 10:28:27;;;;;;;6.32;3.45;;;21.00;99.90;;;;;;5004578;28;20037;-72
2022/06/05 10:31:05;;;;;;;6.57;4.10;;;21.00;99.90;;;;;;5028121;28;20457;-72
2022/06/05 10:33:31;;;;;;;5.78;4.18;;;21.00;99.90;;;;;;5033612;28;20125;-71
2022/06/05 10:36:20;;;;;;;5.38;3.83;;;21.10;99.90;;;;;;5008780;28;20116;-72
2022/06/05 10:39:25;;;;;;;6.93;4.43;;;21.10;99.90;;;;;;5036701;28;20087;-71
2022/06/05 10:41:53;;;;;;;6.53;3.15;;;21.10;99.90;;;;;;5041207;28;20059;-71
2022/06/05 10:44:34;;;;;;;7.28;3.92;;;21.20;99.90;;;;;;5013823;28;20135;-71
2022/06/05 10:47:12;;;;;;;6.03;3.92;;;21.30;99.90;;;;;;5034235;28;20433;-72
2022/06/05 10:49:57;;;;;;;7.72;4.03;;;21.30;99.90;;;;;;5009242;28;20107;-72
2022/06/05 10:52:25;;;;;;;5.63;3.85;;;21.30;99.90;;;;;;5033962;28;20060;-72
2022/06/05 10:55:20;;;;;;;6.68;4.20;;;21.30;99.90;;;;;;5022347;28;20045;-72
2022/06/05 10:57:58;;;;;;;5.28;3.70;;;21.30;99.90;;;;;;5033491;28;20457;-71
2022/06/05 11:00:32;;;;;;;7.15;3.70;;;21.40;99.90;;;;;;5022560;28;20697;-71
2022/06/05 11:03:29;;;;;;;6.43;4.20;;;21.40;99.90;;;;;;5018656;28;20071;-72
2022/06/05 11:06:03;;;;;;;5.22;3.85;;;21.40;99.90;;;;;;5024989;28;20072;-71
2022/06/05 11:08:49;;;;;;;7.90;4.28;;;21.40;99.90;;;;;;5030352;28;20037;-72
2022/06/05 11:14:23;;;;;;;6.70;3.85;;;21.40;99.90;;;;;;5031748;28;20053;-73
2022/06/05 11:17:15;;;;;;;6.00;3.97;;;21.40;99.90;;;;;;5040502;28;20033;-71
2022/06/05 11:20:00;;;;;;;6.72;4.60;;;21.40;99.90;;;;;;5012888;28;20052;-71
2022/06/05 11:22:29;;;;;;;5.65;4.07;;;21.40;99.90;;;;;;5030573;28;20438;-72
2022/06/05 11:25:25;;;;;;;5.90;3.97;;;21.40;99.90;;;;;;5026819;28;20043;-73
2022/06/05 11:28:12;;;;;;;5.75;3.97;;;21.40;99.90;;;;;;5033144;28;20045;-73
2022/06/05 11:30:53;;;;;;;7.28;4.63;;;21.40;99.90;;;;;;5024313;28;20060;-73
2022/06/05 11:33:27;;;;;;;5.50;4.10;;;21.40;99.90;;;;;;5017275;28;20045;-73
2022/06/05 11:36:31;;;;;;;5.72;4.50;;;21.40;99.90;;;;;;5013575;28;20128;-73
2022/06/05 11:39:19;;;;;;;4.70;3.90;;;21.40;99.90;;;;;;4965031;28;20057;-72
2022/06/05 11:42:19;;;;;;;5.93;3.58;;;21.50;99.90;;;;;;5033163;28;20048;-72
2022/06/05 11:44:47;;;;;;;5.25;3.70;;;21.50;99.90;;;;;;5034852;28;20075;-72
2022/06/05 11:47:38;;;;;;;4.82;3.70;;;21.50;99.90;;;;;;5028279;28;20069;-72
2022/06/05 11:50:15;;;;;;;6.78;3.70;;;21.50;99.90;;;;;;5017429;28;20076;-72
2022/06/05 11:52:52;;;;;;;5.18;3.42;;;21.50;99.90;;;;;;5024822;28;20048;-75
2022/06/05 11:55:24;;;;;;;;;;;21.50;99.90;;;;;;5026295;28;20041;-74
2022/06/05 11:58:00;;;;;;;6.38;3.85;;;21.40;99.90;;;;;;5016870;28;20444;-74
2022/06/05 12:00:35;;;;;;;5.45;3.65;;;21.50;99.90;;;;;;5041268;28;20481;-73
2022/06/05 12:03:23;;;;;;;5.45;3.97;;;21.50;99.90;;;;;;5032183;28;20186;-73
2022/06/05 12:06:14;;;;;;;5.15;3.53;;;21.50;99.90;;;;;;5045975;28;20060;-74
2022/06/05 12:08:47;;;;;;;6.40;3.38;;;21.50;99.90;;;;;;5028346;28;20110;-73
2022/06/05 12:11:12;;;;;;;5.43;3.90;;;21.50;99.90;;;;;;5018226;28;20138;-73
2022/06/05 12:13:41;;;;;;;;;;;21.60;99.90;;;;;;4997039;28;20083;-74
2022/06/05 12:16:16;;;;;;;5.38;3.55;;;21.60;99.90;;;;;;5042334;28;19920;-73
2022/06/05 12:19:05;;;;;;;6.47;3.80;;;21.80;99.90;;;;;;5008469;28;20051;-71
2022/06/05 12:22:02;;;;;;;7.00;4.18;;;21.80;99.90;;;;;;5019920;28;20080;-72
2022/06/05 12:24:42;;;;;;;8.10;3.83;;;21.80;99.90;;;;;;5041904;28;20049;-72
2022/06/05 12:27:13;;;;;;;5.43;3.90;;;21.90;99.90;;;;;;5039680;28;20072;-72
2022/06/05 12:30:13;;;;;;;5.53;4.00;;;21.90;99.90;;;;;;5001936;28;20049;-71
2022/06/05 12:32:52;;;;;;;10.23;4.30;;;22.00;99.90;;;;;;5024189;28;20046;-71
2022/06/05 12:35:28;;;;;;;4.82;3.42;;;22.00;99.90;;;;;;5017489;28;20049;-71
2022/06/05 12:38:04;;;;;;;4.78;3.55;;;22.10;99.90;;;;;;5037422;28;20055;-71
2022/06/05 12:40:35;;;;;;;4.50;3.70;;;22.10;99.90;;;;;;5027233;28;20041;-71
2022/06/05 12:43:10;;;;;;;5.88;3.70;;;22.10;99.90;;;;;;5023868;28;20274;-71
2022/06/05 12:45:40;;;;;;;4.15;3.25;;;22.10;99.90;;;;;;5032040;28;20156;-72
2022/06/05 12:48:12;;;;;;;6.05;3.47;;;22.10;99.90;;;;;;5037290;28;20123;-71
2022/06/05 12:50:56;;;;;;;6.45;3.97;;;22.10;99.90;;;;;;5038640;28;20060;-71
2022/06/05 12:53:35;;;;;;;7.38;4.00;;;22.10;99.90;;;;;;5026015;28;20067;-71
2022/06/05 12:56:13;;;;;;;4.90;3.10;;;22.10;99.90;;;;;;5017725;28;20041;-71
2022/06/05 12:59:18;;;;;;;5.60;3.28;;;22.10;99.90;;;;;;5043929;28;20033;-71
2022/06/05 13:01:57;;;;;;;4.55;3.10;;;22.20;99.90;;;;;;5001712;28;20201;-71
2022/06/05 13:04:51;;;;;;;4.82;3.55;;;22.20;99.90;;;;;;5011334;28;20060;-71
2022/06/05 13:07:40;;;;;;;5.05;3.70;;;22.20;99.90;;;;;;5027164;28;20093;-71
2022/06/05 13:10:21;;;;;;;4.25;3.20;;;22.30;99.90;;;;;;5033133;28;20513;-71
2022/06/05 13:13:23;;;;;;;4.43;3.42;;;22.30;99.90;;;;;;5039843;28;20131;-71
2022/06/05 13:15:59;;;;;;;4.90;3.45;;;22.30;99.90;;;;;;5014241;28;20056;-71
2022/06/05 13:18:32;;;;;;;4.20;3.00;;;22.30;99.90;;;;;;5047836;28;20083;-71
2022/06/05 13:21:00;;;;;;;7.30;3.38;;;22.30;99.90;;;;;;5022043;28;20448;-72
2022/06/05 13:23:33;;;;;;;5.72;3.42;;;22.30;99.90;;;;;;5038964;28;20041;-72
2022/06/05 13:26:03;;;;;;;4.50;3.65;;;22.30;99.90;;;;;;5040328;28;20044;-71
2022/06/05 13:28:44;;;;;;;7.43;4.10;;;22.30;99.90;;;;;;5033147;28;20276;-71
2022/06/05 13:31:44;;;;;;;5.63;3.58;;;22.30;99.90;;;;;;5015279;28;20431;-71
2022/06/05 13:34:09;;;;;;;4.88;3.85;;;22.30;99.90;;;;;;5017739;28;20395;-71
2022/06/05 13:36:43;;;;;;;;;;;22.30;99.90;;;;;;5004939;28;20040;-71
2022/06/05 13:39:56;;;;;;;7.05;4.00;;;22.30;99.90;;;;;;5034491;28;19916;-71